createdAt,value
2022-12-13T00:01:30.183Z,41.03
2022-12-13T00:03:59.771Z,38.73
2022-12-13T00:06:28.198Z,41.50
2022-12-13T00:08:55.266Z,40.80
2022-12-13T00:11:22.583Z,46.70
2022-12-13T00:13:50.195Z,38.60
2022-12-13T00:16:22.709Z,36.30
2022-12-13T00:18:55.284Z,36.53
2022-12-13T00:21:25.031Z,35.03
2022-12-13T00:23:52.613Z,38.93
2022-12-13T00:26:22.975Z,37.50
2022-12-13T00:28:51.251Z,34.30
2022-12-13T00:31:53.526Z,35.70
2022-12-13T00:34:08.858Z,36.10
2022-12-13T00:36:35.938Z,40.83
2022-12-13T00:39:03.224Z,34.93
2022-12-13T00:41:33.186Z,37.43
2022-12-13T00:44:01.246Z,38.27
2022-12-13T00:46:28.994Z,38.93
2022-12-13T00:48:58.761Z,32.57
2022-12-13T00:51:29.280Z,37.67
2022-12-13T00:53:56.536Z,35.50
2022-12-13T00:56:26.732Z,38.40
2022-12-13T00:58:56.109Z,40.03
2022-12-13T01:01:26.507Z,34.93
2022-12-13T01:03:55.359Z,36.47
2022-12-13T01:06:29.884Z,33.67
2022-12-13T01:08:57.045Z,38.60
2022-12-13T01:11:24.571Z,33.93
2022-12-13T01:13:51.688Z,34.17
2022-12-13T01:16:18.947Z,35.33
2022-12-13T01:18:46.073Z,35.90
2022-12-13T01:21:16.610Z,37.93
2022-12-13T01:23:45.594Z,36.57
2022-12-13T01:26:20.190Z,35.17
2022-12-13T01:28:48.397Z,34.33
2022-12-13T01:31:19.232Z,31.53
2022-12-13T01:33:46.874Z,32.23
2022-12-13T01:36:18.219Z,40.37
2022-12-13T01:38:46.858Z,36.80
2022-12-13T01:41:17.445Z,37.87
2022-12-13T01:44:00.743Z,35.57
2022-12-13T01:46:27.906Z,35.47
2022-12-13T01:49:04.128Z,35.90
2022-12-13T01:51:37.331Z,35.97
2022-12-13T01:54:10.274Z,36.47
2022-12-13T01:56:41.531Z,35.47
2022-12-13T01:59:11.336Z,34.97
2022-12-13T02:01:40.013Z,33.80
2022-12-13T02:04:08.215Z,34.40
2022-12-13T02:06:40.125Z,34.70
2022-12-13T02:09:10.153Z,37.03
2022-12-13T02:11:41.622Z,33.37
2022-12-13T02:14:09.743Z,35.23
2022-12-13T02:16:54.871Z,31.47
2022-12-13T02:20:00.975Z,33.93
2022-12-13T02:22:57.585Z,35.40
2022-12-13T02:26:06.662Z,35.80
2022-12-13T02:29:01.477Z,34.67
2022-12-13T02:31:41.686Z,36.17
2022-12-13T02:34:18.271Z,38.63
2022-12-13T02:36:57.174Z,31.30
2022-12-13T02:39:31.339Z,35.37
2022-12-13T02:42:05.943Z,38.83
2022-12-13T02:44:40.841Z,36.03
2022-12-13T02:47:22.208Z,35.17
2022-12-13T02:49:56.010Z,36.33
2022-12-13T02:52:29.432Z,34.40
2022-12-13T02:54:58.056Z,36.27
2022-12-13T02:57:34.290Z,33.83
2022-12-13T03:00:08.829Z,35.43
2022-12-13T03:02:54.187Z,32.27
2022-12-13T03:05:54.944Z,33.60
2022-12-13T03:08:31.434Z,37.80
2022-12-13T03:11:07.981Z,35.33
2022-12-13T03:13:49.059Z,37.23
2022-12-13T03:16:27.331Z,35.47
2022-12-13T03:19:00.740Z,35.27
2022-12-13T03:21:28.644Z,31.50
2022-12-13T03:23:55.708Z,35.17
2022-12-13T03:26:26.913Z,38.97
2022-12-13T03:28:54.252Z,39.20
2022-12-13T03:31:21.950Z,38.53
2022-12-13T03:33:51.176Z,37.93
2022-12-13T03:36:19.971Z,36.60
2022-12-13T03:38:52.312Z,35.50
2022-12-13T03:41:23.948Z,35.23
2022-12-13T03:43:51.089Z,34.53
2022-12-13T03:46:18.113Z,34.67
2022-12-13T03:48:45.148Z,34.93
2022-12-13T03:51:12.155Z,34.07
2022-12-13T03:53:40.488Z,32.30
2022-12-13T03:56:08.111Z,35.97
2022-12-13T03:58:37.940Z,35.43
2022-12-13T04:01:11.284Z,38.10
2022-12-13T04:03:40.306Z,33.60
2022-12-13T04:06:08.420Z,36.60
2022-12-13T04:08:37.508Z,32.70
2022-12-13T04:11:25.477Z,35.07
2022-12-13T04:13:53.857Z,34.40
2022-12-13T04:16:21.482Z,35.00
2022-12-13T04:18:48.883Z,33.63
2022-12-13T04:21:16.255Z,34.20
2022-12-13T04:23:43.287Z,36.77
2022-12-13T04:26:11.806Z,33.23
2022-12-13T04:28:39.009Z,32.53
2022-12-13T04:31:06.344Z,35.23
2022-12-13T04:33:33.724Z,32.47
2022-12-13T04:36:00.866Z,34.83
2022-12-13T04:38:27.900Z,32.70
2022-12-13T04:41:06.421Z,37.70
2022-12-13T04:43:34.716Z,35.67
2022-12-13T04:46:01.848Z,38.17
2022-12-13T04:48:31.373Z,34.10
2022-12-13T04:51:01.159Z,36.40
2022-12-13T04:53:28.944Z,30.43
2022-12-13T04:55:56.228Z,34.83
2022-12-13T04:58:23.378Z,35.33
2022-12-13T05:00:51.732Z,31.50
2022-12-13T05:03:18.765Z,31.67
2022-12-13T05:05:45.719Z,33.07
2022-12-13T05:08:13.254Z,34.10
2022-12-13T05:10:40.459Z,34.20
2022-12-13T05:13:07.737Z,31.93
2022-12-13T05:15:35.475Z,32.17
2022-12-13T05:18:09.485Z,36.90
2022-12-13T05:20:39.192Z,32.63
2022-12-13T05:23:06.387Z,32.27
2022-12-13T05:25:36.609Z,32.70
2022-12-13T05:28:08.810Z,31.70
2022-12-13T05:30:51.132Z,33.97
2022-12-13T05:33:19.447Z,34.20
2022-12-13T05:35:46.651Z,33.43
2022-12-13T05:38:13.987Z,33.53
2022-12-13T05:40:41.168Z,33.37
2022-12-13T05:43:22.351Z,35.67
2022-12-13T05:45:49.923Z,34.17
2022-12-13T05:48:24.696Z,34.17
2022-12-13T05:51:10.584Z,34.83
2022-12-13T05:53:40.155Z,33.10
2022-12-13T05:56:08.996Z,30.97
2022-12-13T05:58:38.231Z,37.83
2022-12-13T06:01:07.582Z,33.30
2022-12-13T06:03:34.822Z,33.87
2022-12-13T06:06:04.822Z,35.33
2022-12-13T06:08:32.201Z,35.50
2022-12-13T06:11:11.758Z,42.23
2022-12-13T06:13:42.668Z,32.43
2022-12-13T06:16:23.478Z,32.70
2022-12-13T06:18:59.403Z,35.77
2022-12-13T06:21:40.796Z,33.23
2022-12-13T06:24:15.285Z,37.00
2022-12-13T06:26:42.859Z,38.17
2022-12-13T06:29:12.790Z,33.97
2022-12-13T06:32:02.149Z,34.73
2022-12-13T06:34:33.312Z,39.50
2022-12-13T06:37:03.684Z,33.60
2022-12-13T06:39:32.722Z,41.50
2022-12-13T06:42:02.629Z,37.77
2022-12-13T06:44:29.591Z,37.87
2022-12-13T06:47:11.755Z,34.60
2022-12-13T06:49:42.940Z,35.83
2022-12-13T06:52:13.831Z,35.13
2022-12-13T06:54:45.248Z,36.10
2022-12-13T06:57:13.492Z,41.97
2022-12-13T06:59:41.340Z,34.90
2022-12-13T07:02:25.296Z,37.13
2022-12-13T07:04:55.032Z,37.00
2022-12-13T07:07:25.983Z,40.83
2022-12-13T07:09:53.648Z,33.90
2022-12-13T07:12:21.121Z,37.83
2022-12-13T07:14:48.195Z,40.47
2022-12-13T07:17:33.014Z,40.30
2022-12-13T07:20:04.556Z,35.63
2022-12-13T07:22:34.978Z,35.20
2022-12-13T07:25:05.314Z,42.53
2022-12-13T07:27:32.944Z,46.23
2022-12-13T07:30:00.366Z,45.30
2022-12-13T07:32:27.836Z,56.37
2022-12-13T07:34:54.877Z,48.23
2022-12-13T07:37:30.294Z,47.17
2022-12-13T07:40:04.041Z,48.40
2022-12-13T07:42:32.195Z,56.73
2022-12-13T07:44:59.125Z,51.93
2022-12-13T07:47:29.881Z,46.80
2022-12-13T07:49:57.278Z,48.10
2022-12-13T07:52:24.708Z,49.43
2022-12-13T07:54:51.678Z,49.20
2022-12-13T07:57:20.063Z,43.40
2022-12-13T07:59:47.037Z,44.37
2022-12-13T08:02:14.291Z,51.57
2022-12-13T08:04:43.094Z,47.80
2022-12-13T08:07:10.938Z,50.50
2022-12-13T08:09:38.111Z,48.03
2022-12-13T08:12:05.618Z,48.40
2022-12-13T08:14:34.007Z,50.67
2022-12-13T08:17:01.169Z,48.93
2022-12-13T08:19:28.198Z,52.80
2022-12-13T08:21:58.740Z,81.10
2022-12-13T08:24:31.129Z,50.23
2022-12-13T08:27:02.171Z,49.70
2022-12-13T08:29:34.063Z,59.63
2022-12-13T08:32:05.646Z,52.37
2022-12-13T08:34:32.728Z,57.43
2022-12-13T08:37:01.426Z,65.47
2022-12-13T08:39:30.726Z,61.43
2022-12-13T08:42:14.900Z,59.90
2022-12-13T08:44:45.260Z,59.70
2022-12-13T08:47:24.605Z,79.70
2022-12-13T08:50:01.429Z,53.97
2022-12-13T08:52:32.214Z,55.50
2022-12-13T08:55:09.093Z,50.57
2022-12-13T08:57:36.278Z,60.13
2022-12-13T09:00:05.196Z,54.00
2022-12-13T09:02:38.072Z,56.93
2022-12-13T09:05:10.654Z,52.73
2022-12-13T09:07:41.138Z,55.13
2022-12-13T09:10:26.251Z,60.23
2022-12-13T09:13:01.144Z,77.63
2022-12-13T09:15:33.781Z,56.93
2022-12-13T09:18:05.790Z,66.57
2022-12-13T09:20:40.473Z,49.77
2022-12-13T09:23:13.983Z,47.70
2022-12-13T09:25:54.941Z,55.30
2022-12-13T09:28:22.914Z,46.93
2022-12-13T09:30:52.824Z,60.30
2022-12-13T09:33:29.398Z,45.20
2022-12-13T09:36:01.158Z,45.60
2022-12-13T09:38:28.785Z,46.00
2022-12-13T09:41:03.556Z,50.13
2022-12-13T09:43:49.930Z,44.43
2022-12-13T09:46:34.333Z,53.97
2022-12-13T09:49:13.275Z,51.03
2022-12-13T09:51:55.278Z,45.13
2022-12-13T09:54:36.536Z,44.53
2022-12-13T09:57:04.210Z,51.30
2022-12-13T09:59:35.498Z,44.13
2022-12-13T10:02:15.841Z,46.83
2022-12-13T10:04:45.023Z,50.97
2022-12-13T10:07:18.877Z,52.70
2022-12-13T10:09:47.582Z,52.70
2022-12-13T10:12:18.075Z,77.87
2022-12-13T10:14:54.169Z,56.10
2022-12-13T10:17:25.675Z,50.30
2022-12-13T10:19:54.548Z,55.17
2022-12-13T10:22:25.076Z,64.00
2022-12-13T10:24:54.704Z,56.53
2022-12-13T10:27:29.989Z,54.60
2022-12-13T10:30:08.407Z,62.90
2022-12-13T10:32:55.046Z,64.80
2022-12-13T10:35:36.073Z,53.77
2022-12-13T10:38:31.712Z,59.77
2022-12-13T10:41:00.953Z,62.23
2022-12-13T10:43:30.354Z,58.80
2022-12-13T10:46:05.119Z,57.03
2022-12-13T10:48:39.426Z,64.17
2022-12-13T10:51:13.073Z,58.97
2022-12-13T10:53:47.418Z,57.47
2022-12-13T10:56:23.022Z,64.13
2022-12-13T10:59:15.022Z,68.13
2022-12-13T11:01:44.525Z,66.97
2022-12-13T11:04:27.899Z,63.93
2022-12-13T11:06:59.773Z,65.17
2022-12-13T11:09:38.257Z,62.10
2022-12-13T11:12:16.403Z,56.30
2022-12-13T11:14:55.590Z,52.07
2022-12-13T11:17:26.530Z,53.17
2022-12-13T11:19:57.793Z,47.00
2022-12-13T11:22:29.966Z,48.90
2022-12-13T11:25:02.505Z,47.00
2022-12-13T11:27:49.758Z,46.17
2022-12-13T11:30:24.165Z,43.70
2022-12-13T11:33:26.127Z,46.27
2022-12-13T11:36:12.740Z,42.23
2022-12-13T11:39:00.091Z,42.70
2022-12-13T11:41:34.589Z,36.63
2022-12-13T11:44:13.798Z,38.87
2022-12-13T11:46:45.013Z,38.27
2022-12-13T11:49:17.952Z,40.40
2022-12-13T11:51:53.917Z,43.67
2022-12-13T11:54:35.018Z,38.97
2022-12-13T11:57:16.313Z,37.17
2022-12-13T11:59:53.314Z,35.77
2022-12-13T12:02:38.863Z,37.57
2022-12-13T12:05:18.882Z,36.67
2022-12-13T12:08:31.236Z,37.90
2022-12-13T12:10:50.074Z,37.77
2022-12-13T12:13:27.093Z,40.00
2022-12-13T12:16:11.060Z,41.20
2022-12-13T12:18:38.936Z,33.43
2022-12-13T12:21:37.128Z,38.83
2022-12-13T12:24:28.453Z,40.73
2022-12-13T12:27:22.050Z,38.57
2022-12-13T12:30:07.622Z,35.70
2022-12-13T12:32:47.056Z,34.17
2022-12-13T12:35:46.158Z,40.47
2022-12-13T12:39:05.153Z,37.83
2022-12-13T12:41:52.850Z,36.23
2022-12-13T12:44:41.204Z,38.83
2022-12-13T12:50:42.728Z,35.03
2022-12-13T12:53:39.715Z,36.93
2022-12-13T12:56:31.305Z,39.63
2022-12-13T12:59:15.563Z,46.83
2022-12-13T13:02:07.444Z,35.90
2022-12-13T13:04:43.747Z,36.00
2022-12-13T13:07:23.438Z,40.70
2022-12-13T13:09:54.840Z,39.67
2022-12-13T13:12:29.579Z,36.63
2022-12-13T13:14:57.913Z,32.83
2022-12-13T13:17:48.159Z,42.10
2022-12-13T13:20:23.423Z,36.70
2022-12-13T13:23:10.355Z,37.83
2022-12-13T13:26:07.522Z,39.37
2022-12-13T13:28:27.554Z,36.67
2022-12-13T13:31:08.883Z,36.97
2022-12-13T13:33:48.150Z,37.73
2022-12-13T13:36:47.184Z,40.90
2022-12-13T13:39:19.096Z,41.03
2022-12-13T13:42:17.599Z,36.57
2022-12-13T13:45:18.934Z,35.37
2022-12-13T13:48:19.091Z,35.83
2022-12-13T13:51:30.120Z,42.83
2022-12-13T13:54:59.223Z,38.40
2022-12-13T13:58:21.747Z,35.73
2022-12-13T14:01:44.390Z,38.45
2022-12-13T14:05:09.282Z,37.13
2022-12-13T14:08:20.152Z,35.57
2022-12-13T14:11:17.059Z,39.90
2022-12-13T14:14:50.179Z,41.93
2022-12-13T14:18:24.962Z,41.50
2022-12-13T14:21:08.686Z,36.80
2022-12-13T14:24:00.168Z,36.53
2022-12-13T14:26:55.352Z,39.83
2022-12-13T14:29:31.472Z,41.33
2022-12-13T14:31:59.182Z,46.93
2022-12-13T14:34:28.732Z,48.80
2022-12-13T14:36:59.860Z,47.00
2022-12-13T14:39:31.111Z,46.10
2022-12-13T14:42:02.062Z,41.93
2022-12-13T14:44:33.689Z,47.60
2022-12-13T14:47:04.981Z,46.13
2022-12-13T14:49:40.810Z,52.10
2022-12-13T14:52:26.344Z,46.77
2022-12-13T14:54:59.404Z,46.00
2022-12-13T14:57:50.943Z,46.60
2022-12-13T15:00:25.903Z,46.50
2022-12-13T15:02:56.315Z,39.53
2022-12-13T15:05:31.716Z,48.13
2022-12-13T15:07:59.470Z,37.20
2022-12-13T15:10:48.025Z,43.87
2022-12-13T15:13:29.374Z,41.13
2022-12-13T15:16:01.750Z,42.00
2022-12-13T15:18:37.425Z,41.87
2022-12-13T15:21:21.453Z,45.40
2022-12-13T15:23:50.089Z,43.63
2022-12-13T15:26:28.576Z,49.83
2022-12-13T15:29:00.649Z,42.33
2022-12-13T15:31:32.070Z,44.33
2022-12-13T15:34:34.793Z,43.10
2022-12-13T15:37:05.517Z,42.30
2022-12-13T15:39:38.648Z,40.00
2022-12-13T15:42:19.577Z,43.27
2022-12-13T15:44:54.476Z,39.57
2022-12-13T15:47:28.167Z,40.10
2022-12-13T15:49:58.894Z,46.13
2022-12-13T15:52:35.989Z,42.87
2022-12-13T15:55:28.278Z,42.43
2022-12-13T15:57:58.744Z,39.33
2022-12-13T16:00:31.216Z,41.93
2022-12-13T16:03:09.636Z,41.93
2022-12-13T16:05:46.015Z,44.37
2022-12-13T16:08:28.692Z,44.67
2022-12-13T16:10:58.136Z,38.77
2022-12-13T16:13:29.554Z,40.67
2022-12-13T16:16:09.614Z,42.30
2022-12-13T16:18:51.090Z,42.83
2022-12-13T16:21:18.411Z,40.90
2022-12-13T16:23:48.800Z,43.03
2022-12-13T16:26:23.816Z,41.13
2022-12-13T16:28:52.926Z,40.70
2022-12-13T16:31:26.072Z,42.70
2022-12-13T16:33:53.379Z,41.00
2022-12-13T16:36:20.931Z,41.67
2022-12-13T16:38:48.041Z,41.37
2022-12-13T16:41:16.181Z,42.93
2022-12-13T16:43:55.802Z,36.10
2022-12-13T16:47:15.049Z,44.07
2022-12-13T16:49:21.064Z,42.00
2022-12-13T16:51:49.476Z,42.37
2022-12-13T16:54:18.497Z,41.80
2022-12-13T16:56:45.765Z,42.37
2022-12-13T16:59:16.698Z,46.57
2022-12-13T17:01:45.801Z,41.55
2022-12-13T17:04:19.947Z,42.10
2022-12-13T17:06:48.758Z,41.47
2022-12-13T17:09:16.240Z,39.15
2022-12-13T17:11:43.428Z,40.53
2022-12-13T17:14:10.472Z,37.15
2022-12-13T17:16:38.819Z,38.57
2022-12-13T17:19:05.924Z,41.27
2022-12-13T17:21:33.046Z,39.30
2022-12-13T17:24:02.670Z,37.30
2022-12-13T17:26:30.459Z,41.58
2022-12-13T17:28:57.731Z,36.53
2022-12-13T17:31:28.025Z,39.53
2022-12-13T17:34:00.472Z,39.80
2022-12-13T17:36:27.620Z,42.03
2022-12-13T17:38:54.619Z,42.47
2022-12-13T17:41:21.576Z,39.47
2022-12-13T17:43:48.568Z,42.90
2022-12-13T17:46:18.580Z,49.63
2022-12-13T17:48:45.984Z,45.07
2022-12-13T17:51:14.833Z,43.60
2022-12-13T17:53:43.988Z,41.90
2022-12-13T17:56:15.804Z,47.07
2022-12-13T17:58:43.631Z,45.67
2022-12-13T18:01:12.782Z,42.87
2022-12-13T18:03:40.723Z,42.60
2022-12-13T18:06:09.106Z,42.17
2022-12-13T18:08:39.623Z,45.40
2022-12-13T18:11:31.694Z,45.90
2022-12-13T18:13:56.071Z,39.47
2022-12-13T18:16:30.368Z,42.50
2022-12-13T18:18:59.078Z,44.07
2022-12-13T18:21:27.206Z,44.80
2022-12-13T18:23:56.298Z,44.87
2022-12-13T18:26:24.504Z,42.75
2022-12-13T18:28:52.271Z,40.20
2022-12-13T18:31:22.963Z,43.83
2022-12-13T18:33:52.110Z,41.80
2022-12-13T18:36:22.308Z,44.60
2022-12-13T18:38:49.591Z,43.53
2022-12-13T18:41:21.249Z,39.93
2022-12-13T18:43:53.619Z,42.57
2022-12-13T18:46:20.735Z,41.93
2022-12-13T18:48:47.788Z,44.97
2022-12-13T18:51:15.127Z,43.30
2022-12-13T18:53:42.176Z,47.33
2022-12-13T18:56:18.155Z,40.80
2022-12-13T18:58:48.095Z,46.37
2022-12-13T19:01:16.638Z,50.30
2022-12-13T19:03:45.927Z,43.03
2022-12-13T19:06:16.909Z,42.63
2022-12-13T19:08:47.105Z,42.07
2022-12-13T19:11:14.132Z,43.20
2022-12-13T19:13:41.375Z,44.80
2022-12-13T19:16:16.581Z,42.17
2022-12-13T19:18:44.331Z,41.80
2022-12-13T19:21:15.717Z,46.23
2022-12-13T19:23:42.918Z,42.83
2022-12-13T19:26:13.409Z,44.20
2022-12-13T19:28:42.279Z,41.23
2022-12-13T19:31:13.976Z,42.63
2022-12-13T19:33:42.183Z,42.90
2022-12-13T19:36:11.404Z,46.10
2022-12-13T19:38:39.254Z,41.23
2022-12-13T19:41:09.340Z,44.80
2022-12-13T19:43:37.170Z,46.20
2022-12-13T19:46:05.211Z,42.23
2022-12-13T19:48:37.387Z,42.77
2022-12-13T19:51:07.343Z,46.80
2022-12-13T19:53:35.399Z,39.93
2022-12-13T19:56:06.653Z,41.10
2022-12-13T19:58:33.579Z,43.33
2022-12-13T20:01:02.943Z,46.27
2022-12-13T20:03:33.851Z,45.27
2022-12-13T20:06:02.441Z,39.73
2022-12-13T20:08:30.496Z,39.90
2022-12-13T20:10:58.758Z,39.87
2022-12-13T20:13:27.288Z,43.50
2022-12-13T20:15:54.821Z,43.83
2022-12-13T20:18:22.166Z,39.80
2022-12-13T20:21:11.251Z,48.10
2022-12-13T20:23:38.701Z,46.63
2022-12-13T20:26:08.438Z,47.17
2022-12-13T20:28:35.449Z,46.00
2022-12-13T20:31:07.002Z,47.40
2022-12-13T20:33:35.885Z,46.00
2022-12-13T20:36:25.277Z,44.67
2022-12-13T20:38:53.647Z,40.73
2022-12-13T20:41:20.581Z,42.23
2022-12-13T20:43:52.100Z,45.07
2022-12-13T20:46:19.923Z,45.87
2022-12-13T20:48:49.334Z,40.67
2022-12-13T20:51:21.306Z,46.43
2022-12-13T20:53:50.214Z,41.17
2022-12-13T20:56:20.260Z,42.70
2022-12-13T20:58:47.343Z,44.20
2022-12-13T21:01:17.027Z,43.57
2022-12-13T21:03:45.406Z,40.70
2022-12-13T21:06:13.209Z,42.30
2022-12-13T21:09:02.364Z,44.67
2022-12-13T21:11:32.951Z,44.80
2022-12-13T21:14:07.480Z,41.60
2022-12-13T21:16:40.778Z,42.23
2022-12-13T21:19:10.436Z,43.20
2022-12-13T21:21:39.114Z,46.27
2022-12-13T21:24:08.847Z,47.43
2022-12-13T21:26:36.644Z,45.77
2022-12-13T21:29:06.856Z,46.37
2022-12-13T21:31:35.734Z,42.23
2022-12-13T21:34:05.231Z,40.70
2022-12-13T21:36:34.842Z,44.00
2022-12-13T21:39:06.464Z,44.63
2022-12-13T21:41:34.804Z,42.03
2022-12-13T21:44:01.801Z,40.93
2022-12-13T21:46:47.803Z,41.63
2022-12-13T21:49:17.454Z,45.27
2022-12-13T21:51:47.898Z,40.33
2022-12-13T21:54:15.784Z,38.20
2022-12-13T21:57:02.554Z,42.50
2022-12-13T21:59:29.583Z,42.77
2022-12-13T22:02:11.941Z,42.23
2022-12-13T22:04:42.024Z,43.90
2022-12-13T22:07:11.265Z,43.60
2022-12-13T22:09:39.159Z,40.93
2022-12-13T22:12:10.963Z,45.67
2022-12-13T22:14:38.014Z,41.23
2022-12-13T22:17:05.023Z,42.03
2022-12-13T22:19:32.030Z,39.17
2022-12-13T22:21:59.085Z,43.37
2022-12-13T22:24:26.062Z,40.83
2022-12-13T22:26:53.013Z,39.53
2022-12-13T22:29:23.710Z,38.23
2022-12-13T22:31:50.713Z,39.30
2022-12-13T22:34:18.009Z,43.00
2022-12-13T22:36:44.989Z,40.60
2022-12-13T22:39:16.719Z,40.90
2022-12-13T22:41:44.255Z,41.53
2022-12-13T22:44:12.026Z,42.37
2022-12-13T22:46:40.641Z,40.43
2022-12-13T22:49:09.786Z,39.17
2022-12-13T22:51:37.707Z,37.17
2022-12-13T22:54:05.575Z,41.73
2022-12-13T22:56:36.231Z,39.07
2022-12-13T22:59:07.069Z,38.00
2022-12-13T23:01:37.535Z,41.00
2022-12-13T23:04:07.486Z,39.10
2022-12-13T23:06:37.534Z,35.50
2022-12-13T23:09:10.166Z,41.10
2022-12-13T23:11:55.701Z,39.17
2022-12-13T23:14:30.474Z,41.87
2022-12-13T23:16:57.866Z,40.50
2022-12-13T23:19:48.961Z,35.73
2022-12-13T23:22:14.397Z,35.57
2022-12-13T23:24:41.343Z,36.57
2022-12-13T23:27:08.324Z,37.97
2022-12-13T23:29:35.467Z,37.97
2022-12-13T23:32:02.518Z,36.60
2022-12-13T23:34:31.078Z,38.43
2022-12-13T23:36:58.061Z,42.80
2022-12-13T23:39:25.183Z,33.30
2022-12-13T23:41:52.205Z,33.93
2022-12-13T23:44:19.371Z,40.60
2022-12-13T23:46:48.890Z,39.00
2022-12-13T23:49:16.629Z,38.90
2022-12-13T23:51:44.966Z,38.27
2022-12-13T23:54:16.255Z,36.33
2022-12-13T23:56:43.419Z,39.83
2022-12-13T23:59:10.493Z,37.63
